createdAt,value
2023-03-06T00:00:22.512Z,62.42
2023-03-06T00:02:49.206Z,62.39
2023-03-06T00:05:16.392Z,62.38
2023-03-06T00:07:43.507Z,62.34
2023-03-06T00:10:28.194Z,62.57
2023-03-06T00:12:57.055Z,62.49
2023-03-06T00:15:25.414Z,62.78
2023-03-06T00:17:52.304Z,62.88
2023-03-06T00:20:19.898Z,63.07
2023-03-06T00:22:47.318Z,62.99
2023-03-06T00:25:21.426Z,62.93
2023-03-06T00:27:49.344Z,63.20
2023-03-06T00:30:19.413Z,63.27
2023-03-06T00:32:46.492Z,63.21
2023-03-06T00:35:13.586Z,63.32
2023-03-06T00:37:41.284Z,63.64
2023-03-06T00:40:11.946Z,63.52
2023-03-06T00:42:39.576Z,63.64
2023-03-06T00:45:06.865Z,63.75
2023-03-06T00:47:33.832Z,63.71
2023-03-06T00:50:00.632Z,63.76
2023-03-06T00:52:27.386Z,63.95
2023-03-06T00:54:54.108Z,64.18
2023-03-06T00:57:20.978Z,64.19
2023-03-06T00:59:47.753Z,63.87
2023-03-06T01:02:15.065Z,63.91
2023-03-06T01:04:41.876Z,63.66
2023-03-06T01:07:08.607Z,63.81
2023-03-06T01:09:35.324Z,63.67
2023-03-06T01:12:02.118Z,63.84
2023-03-06T01:14:29.088Z,63.81
2023-03-06T01:16:55.840Z,63.51
2023-03-06T01:19:22.620Z,63.79
2023-03-06T01:21:49.320Z,63.82
2023-03-06T01:24:16.030Z,63.95
2023-03-06T01:26:42.771Z,63.99
2023-03-06T01:29:09.762Z,64.28
2023-03-06T01:31:36.609Z,63.92
2023-03-06T01:34:03.448Z,63.98
2023-03-06T01:36:30.156Z,64.08
2023-03-06T01:38:57.077Z,63.95
2023-03-06T01:41:24.515Z,64.39
2023-03-06T01:43:51.566Z,64.43
2023-03-06T01:46:18.241Z,64.47
2023-03-06T01:48:46.903Z,64.47
2023-03-06T01:51:14.916Z,64.41
2023-03-06T01:53:43.784Z,64.28
2023-03-06T01:56:13.387Z,64.50
2023-03-06T01:58:43.734Z,64.54
2023-03-06T02:01:13.033Z,64.52
2023-03-06T02:03:42.468Z,64.74
2023-03-06T02:06:09.803Z,64.78
2023-03-06T02:08:36.660Z,64.87
2023-03-06T02:11:14.844Z,64.78
2023-03-06T02:13:43.198Z,65.05
2023-03-06T02:16:11.284Z,64.97
2023-03-06T02:18:40.965Z,64.89
2023-03-06T02:21:10.674Z,64.90
2023-03-06T02:23:50.480Z,65.27
2023-03-06T02:26:18.127Z,65.17
2023-03-06T02:28:44.872Z,65.11
2023-03-06T02:31:28.758Z,65.22
2023-03-06T02:34:13.948Z,65.12
2023-03-06T02:36:48.789Z,65.00
2023-03-06T02:39:18.366Z,65.14
2023-03-06T02:41:45.436Z,65.29
2023-03-06T02:44:14.012Z,65.03
2023-03-06T02:46:42.460Z,64.93
2023-03-06T02:49:09.956Z,64.90
2023-03-06T02:51:36.669Z,65.05
2023-03-06T02:54:03.487Z,65.14
2023-03-06T02:56:30.301Z,65.25
2023-03-06T02:58:57.562Z,65.24
2023-03-06T03:01:25.692Z,65.29
2023-03-06T03:03:52.575Z,65.53
2023-03-06T03:06:21.052Z,65.44
2023-03-06T03:08:48.967Z,65.47
2023-03-06T03:11:16.293Z,65.33
2023-03-06T03:13:44.339Z,65.23
2023-03-06T03:16:18.966Z,65.25
2023-03-06T03:18:50.909Z,65.34
2023-03-06T03:21:19.982Z,65.46
2023-03-06T03:23:47.987Z,65.48
2023-03-06T03:26:18.756Z,65.51
2023-03-06T03:28:52.696Z,65.37
2023-03-06T03:31:21.266Z,65.45
2023-03-06T03:33:48.087Z,65.09
2023-03-06T03:36:14.918Z,65.35
2023-03-06T03:38:45.674Z,65.09
2023-03-06T03:41:13.473Z,65.14
2023-03-06T03:43:40.315Z,65.20
2023-03-06T03:46:07.133Z,65.18
2023-03-06T03:48:34.164Z,65.12
2023-03-06T03:51:12.956Z,64.88
2023-03-06T03:53:44.748Z,65.14
2023-03-06T03:56:14.184Z,64.94
2023-03-06T03:58:52.487Z,65.03
2023-03-06T04:01:19.959Z,65.11
2023-03-06T04:03:46.885Z,65.08
2023-03-06T04:06:15.244Z,65.27
2023-03-06T04:08:42.460Z,65.15
2023-03-06T04:11:09.692Z,65.14
2023-03-06T04:13:36.518Z,65.45
2023-03-06T04:16:04.614Z,65.37
2023-03-06T04:18:33.201Z,65.56
2023-03-06T04:21:04.287Z,65.60
2023-03-06T04:23:31.433Z,65.59
2023-03-06T04:25:58.482Z,65.82
2023-03-06T04:28:25.523Z,65.88
2023-03-06T04:30:52.526Z,66.04
2023-03-06T04:33:20.469Z,66.27
2023-03-06T04:35:49.388Z,66.20
2023-03-06T04:38:21.690Z,66.33
2023-03-06T04:40:49.801Z,66.18
2023-03-06T04:43:16.872Z,66.42
2023-03-06T04:45:43.846Z,66.54
2023-03-06T04:48:14.489Z,66.68
2023-03-06T04:50:41.175Z,66.74
2023-03-06T04:53:08.771Z,66.77
2023-03-06T04:55:35.596Z,67.03
2023-03-06T04:58:02.686Z,66.98
2023-03-06T05:00:31.726Z,67.00
2023-03-06T05:03:00.353Z,66.96
2023-03-06T05:05:30.243Z,66.99
2023-03-06T05:07:57.338Z,66.94
2023-03-06T05:10:24.316Z,67.17
2023-03-06T05:12:51.145Z,67.05
2023-03-06T05:15:17.959Z,66.96
2023-03-06T05:17:47.655Z,66.98
2023-03-06T05:20:16.777Z,66.81
2023-03-06T05:22:44.768Z,66.76
2023-03-06T05:25:11.639Z,67.17
2023-03-06T05:27:39.528Z,66.96
2023-03-06T05:30:07.551Z,67.31
2023-03-06T05:32:35.777Z,67.42
2023-03-06T05:35:03.459Z,67.36
2023-03-06T05:37:46.590Z,67.37
2023-03-06T05:40:14.366Z,67.17
2023-03-06T05:42:41.102Z,67.35
2023-03-06T05:45:09.657Z,67.56
2023-03-06T05:47:36.626Z,67.71
2023-03-06T05:50:08.361Z,67.60
2023-03-06T05:52:35.087Z,67.73
2023-03-06T05:55:02.140Z,67.56
2023-03-06T05:57:28.843Z,67.61
2023-03-06T05:59:55.585Z,67.59
2023-03-06T06:02:22.606Z,67.51
2023-03-06T06:04:49.545Z,67.62
2023-03-06T06:07:17.165Z,67.57
2023-03-06T06:09:45.668Z,67.40
2023-03-06T06:12:12.687Z,67.38
2023-03-06T06:14:39.540Z,67.50
2023-03-06T06:17:06.302Z,67.39
2023-03-06T06:19:33.200Z,67.28
2023-03-06T06:22:02.624Z,67.45
2023-03-06T06:24:30.364Z,67.36
2023-03-06T06:26:58.488Z,67.52
2023-03-06T06:29:27.006Z,67.42
2023-03-06T06:31:54.642Z,67.31
2023-03-06T06:34:22.334Z,67.52
2023-03-06T06:36:53.155Z,67.31
2023-03-06T06:39:20.839Z,67.34
2023-03-06T06:42:02.996Z,67.07
2023-03-06T06:44:38.346Z,67.08
2023-03-06T06:47:24.419Z,66.90
2023-03-06T06:49:53.622Z,66.81
2023-03-06T06:52:21.112Z,66.62
2023-03-06T06:54:47.826Z,66.58
2023-03-06T06:57:14.902Z,66.65
2023-03-06T06:59:42.100Z,66.65
2023-03-06T07:02:12.476Z,66.48
2023-03-06T07:04:52.290Z,66.38
2023-03-06T07:07:25.371Z,66.38
2023-03-06T07:09:52.233Z,66.53
2023-03-06T07:12:19.367Z,66.33
2023-03-06T07:14:46.871Z,66.31
2023-03-06T07:17:13.588Z,66.08
2023-03-06T07:19:40.318Z,65.99
2023-03-06T07:22:07.673Z,65.97
2023-03-06T07:24:34.672Z,65.80
2023-03-06T07:27:02.257Z,65.62
2023-03-06T07:29:29.462Z,65.46
2023-03-06T07:31:56.363Z,65.34
2023-03-06T07:34:23.204Z,64.96
2023-03-06T07:36:50.936Z,65.18
2023-03-06T07:39:17.762Z,64.96
2023-03-06T07:41:44.747Z,64.95
2023-03-06T07:44:11.688Z,64.54
2023-03-06T07:46:38.426Z,64.07
2023-03-06T07:49:05.257Z,63.88
2023-03-06T07:51:32.163Z,63.56
2023-03-06T07:53:58.933Z,63.27
2023-03-06T07:56:25.712Z,63.30
2023-03-06T07:58:52.463Z,62.91
2023-03-06T08:01:21.608Z,62.79
2023-03-06T08:03:50.209Z,62.75
2023-03-06T08:06:25.550Z,62.08
2023-03-06T08:08:53.912Z,62.12
2023-03-06T08:11:22.756Z,61.72
2023-03-06T08:13:49.726Z,61.21
2023-03-06T08:16:17.673Z,60.99
2023-03-06T08:18:46.323Z,60.76
2023-03-06T08:21:18.313Z,60.12
2023-03-06T08:23:45.628Z,60.30
2023-03-06T08:26:15.181Z,60.07
2023-03-06T08:28:41.990Z,59.32
2023-03-06T08:31:13.180Z,59.00
2023-03-06T08:33:40.834Z,58.83
2023-03-06T08:36:07.781Z,58.49
2023-03-06T08:38:34.622Z,57.90
2023-03-06T08:41:05.964Z,57.61
2023-03-06T08:43:33.849Z,57.38
2023-03-06T08:46:00.645Z,57.19
2023-03-06T08:48:28.144Z,56.98
2023-03-06T08:50:54.988Z,56.75
2023-03-06T08:53:28.024Z,56.19
2023-03-06T08:56:04.161Z,55.92
2023-03-06T08:58:30.867Z,55.66
2023-03-06T09:00:58.171Z,55.45
2023-03-06T09:03:25.812Z,55.15
2023-03-06T09:05:52.570Z,54.96
2023-03-06T09:08:19.244Z,54.09
2023-03-06T09:10:47.619Z,54.39
2023-03-06T09:13:14.978Z,54.08
2023-03-06T09:15:41.730Z,53.76
2023-03-06T09:18:19.473Z,53.61
2023-03-06T09:20:46.160Z,53.44
2023-03-06T09:23:12.873Z,52.88
2023-03-06T09:25:39.556Z,52.17
2023-03-06T09:28:11.646Z,51.46
2023-03-06T09:30:40.578Z,51.40
2023-03-06T09:33:07.326Z,51.54
2023-03-06T09:35:34.050Z,50.92
2023-03-06T09:38:00.733Z,50.89
2023-03-06T09:40:55.506Z,50.03
2023-03-06T09:43:29.774Z,50.14
2023-03-06T09:45:57.954Z,49.67
2023-03-06T09:48:37.807Z,49.36
2023-03-06T09:51:16.474Z,49.16
2023-03-06T09:54:13.401Z,49.05
2023-03-06T09:56:47.159Z,48.71
2023-03-06T09:59:17.470Z,48.64
2023-03-06T10:02:16.716Z,48.20
2023-03-06T10:04:49.325Z,47.62
2023-03-06T10:07:22.629Z,47.61
2023-03-06T10:10:02.847Z,47.35
2023-03-06T10:12:38.152Z,46.62
2023-03-06T10:15:27.035Z,46.88
2023-03-06T10:17:53.981Z,47.56
2023-03-06T10:20:27.116Z,46.72
2023-03-06T10:23:20.942Z,47.34
2023-03-06T10:26:00.448Z,47.42
2023-03-06T10:28:42.858Z,46.96
2023-03-06T10:31:12.626Z,47.08
2023-03-06T10:33:42.460Z,46.63
2023-03-06T10:36:15.820Z,46.95
2023-03-06T10:38:48.567Z,46.84
2023-03-06T10:41:31.582Z,46.81
2023-03-06T10:44:01.300Z,46.50
2023-03-06T10:46:37.980Z,46.07
2023-03-06T10:49:34.601Z,45.53
2023-03-06T10:52:20.639Z,45.15
2023-03-06T10:54:48.425Z,44.83
2023-03-06T10:57:27.383Z,45.11
2023-03-06T11:00:04.962Z,44.87
2023-03-06T11:02:38.698Z,44.93
2023-03-06T11:05:06.984Z,45.27
2023-03-06T11:07:35.962Z,45.19
2023-03-06T11:10:19.713Z,44.43
2023-03-06T11:12:59.973Z,44.57
2023-03-06T11:15:28.441Z,45.02
2023-03-06T11:18:24.026Z,45.05
2023-03-06T11:20:53.528Z,44.66
2023-03-06T11:23:38.737Z,43.92
2023-03-06T11:26:17.477Z,44.30
2023-03-06T11:28:50.253Z,43.70
2023-03-06T11:31:21.104Z,44.30
2023-03-06T11:33:54.939Z,44.14
2023-03-06T11:36:40.009Z,44.11
2023-03-06T11:39:23.026Z,44.22
2023-03-06T11:41:56.977Z,43.26
2023-03-06T11:44:48.684Z,43.74
2023-03-06T11:47:42.356Z,43.17
2023-03-06T11:50:32.229Z,43.98
2023-03-06T11:53:00.029Z,44.03
2023-03-06T11:56:05.129Z,44.44
2023-03-06T11:58:56.518Z,45.47
2023-03-06T12:01:27.194Z,46.14
2023-03-06T12:04:16.022Z,46.15
2023-03-06T12:07:06.072Z,46.82
2023-03-06T12:09:54.359Z,47.38
2023-03-06T12:12:47.149Z,47.78
2023-03-06T12:15:41.486Z,47.32
2023-03-06T12:18:32.026Z,47.52
2023-03-06T12:20:58.811Z,47.34
2023-03-06T12:23:40.338Z,47.63
2023-03-06T12:26:10.165Z,47.22
2023-03-06T12:28:58.850Z,46.77
2023-03-06T12:31:50.054Z,45.48
2023-03-06T12:34:38.161Z,45.81
2023-03-06T12:37:52.524Z,45.54
2023-03-06T12:40:19.215Z,45.21
2023-03-06T12:43:04.428Z,45.37
2023-03-06T12:45:33.569Z,44.70
2023-03-06T12:48:02.790Z,44.70
2023-03-06T12:50:30.975Z,45.35
2023-03-06T12:53:12.702Z,45.63
2023-03-06T12:55:45.297Z,46.61
2023-03-06T12:58:30.293Z,47.38
2023-03-06T13:01:04.218Z,47.63
2023-03-06T13:03:49.575Z,47.78
2023-03-06T13:06:50.372Z,47.87
2023-03-06T13:09:39.368Z,47.83
2023-03-06T13:12:55.866Z,47.69
2023-03-06T13:15:34.617Z,47.57
2023-03-06T13:18:02.485Z,47.58
2023-03-06T13:20:38.855Z,47.42
2023-03-06T13:23:33.436Z,47.40
2023-03-06T13:26:31.145Z,47.64
2023-03-06T13:28:58.708Z,47.59
2023-03-06T13:31:36.433Z,47.52
2023-03-06T13:34:22.866Z,47.69
2023-03-06T13:36:49.759Z,48.17
2023-03-06T13:39:16.495Z,47.89
2023-03-06T13:41:59.334Z,48.04
2023-03-06T13:44:26.069Z,48.03
2023-03-06T13:47:21.734Z,47.56
2023-03-06T13:49:49.118Z,47.11
2023-03-06T13:52:30.092Z,46.72
2023-03-06T13:55:19.502Z,46.76
2023-03-06T13:57:46.135Z,46.21
2023-03-06T14:00:38.125Z,45.52
2023-03-06T14:03:10.810Z,46.00
2023-03-06T14:05:45.494Z,46.09
2023-03-06T14:08:32.580Z,44.39
2023-03-06T14:11:20.008Z,45.32
2023-03-06T14:13:50.901Z,45.15
2023-03-06T14:16:21.574Z,44.86
2023-03-06T14:18:50.819Z,44.90
2023-03-06T14:21:33.477Z,44.94
2023-03-06T14:24:02.995Z,44.70
2023-03-06T14:26:45.072Z,44.11
2023-03-06T14:29:23.460Z,44.27
2023-03-06T14:31:55.928Z,42.97
2023-03-06T14:34:25.995Z,44.21
2023-03-06T14:36:55.960Z,44.28
2023-03-06T14:39:44.212Z,44.48
2023-03-06T14:42:18.963Z,44.03
2023-03-06T14:44:49.953Z,44.34
2023-03-06T14:47:28.645Z,43.98
2023-03-06T14:50:37.167Z,44.46
2023-03-06T14:53:17.566Z,44.62
2023-03-06T14:55:53.700Z,45.21
2023-03-06T14:58:27.775Z,45.50
2023-03-06T15:00:56.636Z,45.73
2023-03-06T15:03:55.266Z,46.01
2023-03-06T15:06:44.028Z,46.10
2023-03-06T15:09:36.020Z,46.06
2023-03-06T15:12:07.187Z,46.22
2023-03-06T15:14:39.791Z,46.54
2023-03-06T15:17:18.781Z,46.49
2023-03-06T15:19:47.876Z,46.90
2023-03-06T15:22:50.428Z,47.67
2023-03-06T15:25:30.234Z,47.89
2023-03-06T15:28:21.570Z,47.90
2023-03-06T15:31:22.670Z,48.28
2023-03-06T15:34:03.792Z,48.25
2023-03-06T15:36:33.663Z,48.64
2023-03-06T15:39:01.039Z,48.66
2023-03-06T15:41:38.599Z,48.69
2023-03-06T15:44:12.696Z,48.83
2023-03-06T15:46:39.572Z,48.92
2023-03-06T15:49:14.766Z,49.49
2023-03-06T15:51:41.544Z,49.54
2023-03-06T15:54:12.421Z,49.67
2023-03-06T15:56:43.377Z,50.12
2023-03-06T15:59:23.693Z,50.79
2023-03-06T16:01:51.152Z,52.08
2023-03-06T16:04:19.844Z,52.57
2023-03-06T16:06:46.679Z,52.70
2023-03-06T16:09:14.266Z,52.47
2023-03-06T16:11:46.766Z,52.76
2023-03-06T16:14:21.368Z,53.55
2023-03-06T16:16:48.841Z,53.24
2023-03-06T16:19:25.939Z,53.27
2023-03-06T16:21:54.009Z,54.23
2023-03-06T16:24:20.994Z,54.73
2023-03-06T16:26:53.053Z,54.88
2023-03-06T16:29:27.590Z,55.34
2023-03-06T16:31:56.523Z,55.39
2023-03-06T16:34:24.015Z,54.83
2023-03-06T16:36:50.895Z,55.21
2023-03-06T16:39:23.244Z,55.56
2023-03-06T16:41:50.723Z,55.43
2023-03-06T16:44:18.043Z,55.73
2023-03-06T16:46:47.087Z,55.49
2023-03-06T16:49:18.966Z,55.75
2023-03-06T16:51:45.716Z,55.71
2023-03-06T16:54:12.932Z,55.75
2023-03-06T16:56:40.115Z,55.68
2023-03-06T16:59:06.997Z,55.52
2023-03-06T17:01:33.858Z,55.71
2023-03-06T17:04:00.715Z,55.27
2023-03-06T17:06:27.946Z,55.31
2023-03-06T17:08:54.833Z,55.50
2023-03-06T17:11:21.630Z,55.29
2023-03-06T17:13:49.202Z,55.20
2023-03-06T17:16:16.668Z,55.08
2023-03-06T17:18:45.012Z,54.84
2023-03-06T17:21:12.799Z,54.99
2023-03-06T17:23:39.526Z,54.94
2023-03-06T17:26:09.242Z,54.98
2023-03-06T17:28:37.480Z,54.97
2023-03-06T17:31:22.112Z,54.93
2023-03-06T17:33:49.503Z,54.90
2023-03-06T17:36:16.865Z,55.14
2023-03-06T17:38:43.778Z,55.06
2023-03-06T17:41:14.081Z,55.49
2023-03-06T17:43:41.074Z,55.26
2023-03-06T17:46:10.025Z,55.34
2023-03-06T17:48:37.016Z,55.18
2023-03-06T17:51:04.189Z,55.25
2023-03-06T17:53:31.236Z,55.23
2023-03-06T17:55:58.294Z,55.83
2023-03-06T17:58:26.287Z,55.69
2023-03-06T18:00:53.589Z,55.81
2023-03-06T18:03:20.791Z,55.77
2023-03-06T18:05:47.598Z,56.14
2023-03-06T18:08:14.327Z,56.03
2023-03-06T18:10:43.505Z,56.32
2023-03-06T18:13:10.553Z,56.46
2023-03-06T18:15:43.168Z,56.66
2023-03-06T18:18:09.966Z,56.45
2023-03-06T18:20:43.939Z,56.77
2023-03-06T18:23:11.887Z,56.67
2023-03-06T18:25:38.701Z,56.84
2023-03-06T18:28:06.139Z,56.91
2023-03-06T18:30:37.818Z,57.12
2023-03-06T18:33:04.803Z,57.07
2023-03-06T18:35:32.536Z,57.15
2023-03-06T18:38:02.488Z,57.24
2023-03-06T18:40:29.242Z,57.40
2023-03-06T18:42:56.006Z,57.51
2023-03-06T18:45:22.795Z,57.52
2023-03-06T18:47:49.562Z,57.80
2023-03-06T18:50:17.732Z,57.57
2023-03-06T18:52:47.010Z,57.62
2023-03-06T18:55:13.792Z,57.93
2023-03-06T18:57:40.992Z,58.04
2023-03-06T19:00:08.762Z,58.04
2023-03-06T19:02:35.702Z,58.20
2023-03-06T19:05:02.839Z,58.16
2023-03-06T19:07:29.640Z,58.36
2023-03-06T19:09:56.378Z,58.57
2023-03-06T19:12:23.742Z,58.49
2023-03-06T19:14:50.613Z,58.59
2023-03-06T19:17:17.483Z,58.95
2023-03-06T19:19:44.250Z,58.99
2023-03-06T19:22:11.086Z,59.23
2023-03-06T19:24:37.812Z,59.43
2023-03-06T19:27:11.854Z,59.30
2023-03-06T19:29:38.685Z,59.74
2023-03-06T19:32:08.694Z,59.97
2023-03-06T19:34:35.524Z,60.13
2023-03-06T19:37:02.954Z,60.42
2023-03-06T19:39:29.791Z,60.54
2023-03-06T19:41:56.585Z,60.82
2023-03-06T19:44:23.445Z,60.83
2023-03-06T19:46:50.439Z,60.70
2023-03-06T19:49:18.230Z,61.00
2023-03-06T19:51:45.009Z,61.44
2023-03-06T19:54:13.380Z,61.60
2023-03-06T19:56:40.199Z,61.81
2023-03-06T19:59:06.950Z,61.61
2023-03-06T20:01:34.489Z,62.16
2023-03-06T20:04:02.250Z,62.23
2023-03-06T20:06:33.661Z,62.02
2023-03-06T20:09:02.656Z,62.43
2023-03-06T20:11:30.091Z,62.48
2023-03-06T20:13:58.768Z,62.62
2023-03-06T20:16:28.124Z,62.56
2023-03-06T20:18:58.115Z,62.59
2023-03-06T20:21:25.982Z,62.41
2023-03-06T20:23:53.631Z,62.32
2023-03-06T20:26:20.869Z,62.67
2023-03-06T20:28:47.872Z,62.70
2023-03-06T20:31:17.021Z,62.65
2023-03-06T20:33:45.190Z,62.66
2023-03-06T20:36:14.452Z,63.02
2023-03-06T20:38:41.734Z,62.77
2023-03-06T20:41:17.935Z,63.02
2023-03-06T20:43:44.852Z,62.92
2023-03-06T20:46:13.168Z,62.88
2023-03-06T20:48:41.610Z,62.69
2023-03-06T20:51:16.199Z,62.75
2023-03-06T20:53:42.965Z,62.81
2023-03-06T20:56:14.979Z,62.88
2023-03-06T20:58:41.762Z,62.75
2023-03-06T21:01:08.901Z,62.83
2023-03-06T21:03:35.636Z,62.66
2023-03-06T21:06:02.450Z,62.63
2023-03-06T21:08:34.479Z,62.87
2023-03-06T21:11:01.212Z,62.92
2023-03-06T21:13:27.886Z,62.79
2023-03-06T21:15:55.894Z,62.82
2023-03-06T21:18:22.575Z,62.93
2023-03-06T21:20:49.580Z,63.02
2023-03-06T21:23:16.333Z,63.13
2023-03-06T21:25:52.904Z,63.40
2023-03-06T21:28:19.855Z,63.12
2023-03-06T21:30:46.661Z,63.01
2023-03-06T21:33:14.014Z,63.11
2023-03-06T21:35:42.049Z,63.09
2023-03-06T21:38:08.864Z,63.18
2023-03-06T21:40:35.833Z,63.27
2023-03-06T21:43:03.535Z,63.18
2023-03-06T21:45:31.428Z,63.35
2023-03-06T21:48:01.836Z,63.43
2023-03-06T21:50:28.875Z,63.39
2023-03-06T21:52:56.567Z,63.46
2023-03-06T21:55:23.528Z,63.57
2023-03-06T21:57:51.431Z,63.66
2023-03-06T22:00:19.600Z,63.78
2023-03-06T22:02:47.166Z,63.73
2023-03-06T22:05:14.059Z,63.63
2023-03-06T22:07:40.766Z,63.68
2023-03-06T22:10:09.571Z,63.67
2023-03-06T22:12:36.472Z,63.67
2023-03-06T22:15:03.323Z,63.56
2023-03-06T22:17:31.160Z,63.65
2023-03-06T22:19:58.038Z,63.59
2023-03-06T22:22:25.285Z,63.72
2023-03-06T22:24:51.999Z,63.88
2023-03-06T22:27:18.680Z,63.58
2023-03-06T22:29:46.039Z,63.58
2023-03-06T22:32:12.989Z,63.65
2023-03-06T22:34:39.846Z,63.50
2023-03-06T22:37:06.676Z,63.38
2023-03-06T22:39:33.436Z,63.44
2023-03-06T22:42:00.211Z,63.38
2023-03-06T22:44:26.945Z,63.45
2023-03-06T22:46:53.871Z,63.16
2023-03-06T22:49:20.677Z,63.05
2023-03-06T22:51:47.431Z,63.10
2023-03-06T22:54:14.148Z,63.10
2023-03-06T22:56:40.814Z,63.19
2023-03-06T22:59:07.549Z,62.93
2023-03-06T23:01:34.959Z,62.78
2023-03-06T23:04:04.032Z,62.71
2023-03-06T23:06:43.252Z,62.47
2023-03-06T23:09:16.556Z,62.28
2023-03-06T23:12:03.324Z,62.17
2023-03-06T23:14:51.133Z,62.16
2023-03-06T23:17:36.711Z,62.15
2023-03-06T23:20:22.626Z,61.99
2023-03-06T23:23:07.947Z,61.97
2023-03-06T23:25:40.445Z,61.85
2023-03-06T23:28:07.717Z,61.66
2023-03-06T23:30:34.425Z,61.53
2023-03-06T23:33:01.216Z,61.65
2023-03-06T23:35:28.437Z,61.69
2023-03-06T23:37:55.250Z,61.63
2023-03-06T23:40:22.389Z,61.71
2023-03-06T23:42:49.205Z,61.48
2023-03-06T23:45:16.360Z,61.49
2023-03-06T23:47:43.076Z,61.54
2023-03-06T23:50:10.497Z,61.33
2023-03-06T23:52:38.163Z,61.39
2023-03-06T23:55:05.789Z,61.24
2023-03-06T23:57:32.815Z,61.38
2023-03-06T23:59:59.489Z,61.20
